createdAt,value
2023-08-03T00:01:29.207Z,14.97
2023-08-03T00:04:02.264Z,14.98
2023-08-03T00:06:34.086Z,14.98
2023-08-03T00:09:05.433Z,14.98
2023-08-03T00:11:39.893Z,14.98
2023-08-03T00:14:08.517Z,14.99
2023-08-03T00:16:38.753Z,14.98
2023-08-03T00:19:08.063Z,14.97
2023-08-03T00:21:40.454Z,14.98
2023-08-03T00:24:09.193Z,14.97
2023-08-03T00:26:42.487Z,14.97
2023-08-03T00:29:10.880Z,15.00
2023-08-03T00:31:40.222Z,14.98
2023-08-03T00:34:09.113Z,14.95
2023-08-03T00:36:42.797Z,14.93
2023-08-03T00:39:11.758Z,14.91
2023-08-03T00:41:45.126Z,14.91
2023-08-03T00:44:16.352Z,14.91
2023-08-03T00:46:44.669Z,14.91
2023-08-03T00:49:15.576Z,14.92
2023-08-03T00:51:44.516Z,14.92
2023-08-03T00:54:18.312Z,14.92
2023-08-03T00:56:49.709Z,14.92
2023-08-03T00:59:18.327Z,14.91
2023-08-03T01:01:59.829Z,14.91
2023-08-03T01:04:29.436Z,14.87
2023-08-03T01:07:06.364Z,14.87
2023-08-03T01:09:36.220Z,14.84
2023-08-03T01:12:07.375Z,14.85
2023-08-03T01:14:35.925Z,14.78
2023-08-03T01:17:05.061Z,14.76
2023-08-03T01:19:36.164Z,14.75
2023-08-03T01:22:05.265Z,14.71
2023-08-03T01:24:36.903Z,14.70
2023-08-03T01:27:06.576Z,14.65
2023-08-03T01:29:35.884Z,14.65
2023-08-03T01:32:06.646Z,14.62
2023-08-03T01:34:38.620Z,14.61
2023-08-03T01:37:14.688Z,14.60
2023-08-03T01:39:48.421Z,14.57
2023-08-03T01:42:17.676Z,14.54
2023-08-03T01:44:49.666Z,14.52
2023-08-03T01:47:26.348Z,14.50
2023-08-03T01:49:56.439Z,14.49
2023-08-03T01:52:25.017Z,14.46
2023-08-03T01:54:57.551Z,14.44
2023-08-03T01:57:26.579Z,14.42
2023-08-03T01:59:57.634Z,14.41
2023-08-03T02:02:25.912Z,14.38
2023-08-03T02:04:54.428Z,14.37
2023-08-03T02:07:44.362Z,14.35
2023-08-03T02:10:14.961Z,14.30
2023-08-03T02:12:44.695Z,14.30
2023-08-03T02:15:14.060Z,14.26
2023-08-03T02:17:45.382Z,14.23
2023-08-03T02:20:15.143Z,14.22
2023-08-03T02:22:51.002Z,14.20
2023-08-03T02:25:25.423Z,14.20
2023-08-03T02:27:54.064Z,14.17
2023-08-03T02:30:23.635Z,14.14
2023-08-03T02:32:54.686Z,14.12
2023-08-03T02:35:27.585Z,14.09
2023-08-03T02:37:57.556Z,14.05
2023-08-03T02:40:27.243Z,14.03
2023-08-03T02:42:55.449Z,13.98
2023-08-03T02:45:27.785Z,13.93
2023-08-03T02:47:56.868Z,13.90
2023-08-03T02:50:26.315Z,13.84
2023-08-03T02:52:59.290Z,13.84
2023-08-03T02:55:29.370Z,13.80
2023-08-03T02:57:58.171Z,13.78
2023-08-03T03:00:29.405Z,13.76
2023-08-03T03:02:57.915Z,13.73
2023-08-03T03:05:26.990Z,13.71
2023-08-03T03:07:59.164Z,13.64
2023-08-03T03:10:28.923Z,13.60
2023-08-03T03:12:57.367Z,13.52
2023-08-03T03:15:30.535Z,13.45
2023-08-03T03:18:01.085Z,13.41
2023-08-03T03:20:33.562Z,13.35
2023-08-03T03:23:02.803Z,13.29
2023-08-03T03:25:32.662Z,13.24
2023-08-03T03:28:06.077Z,13.18
2023-08-03T03:30:36.186Z,13.15
2023-08-03T03:33:05.220Z,13.14
2023-08-03T03:35:37.260Z,13.15
2023-08-03T03:38:06.680Z,13.18
2023-08-03T03:40:38.705Z,13.17
2023-08-03T03:43:07.120Z,13.17
2023-08-03T03:45:36.091Z,13.18
2023-08-03T03:48:05.908Z,13.17
2023-08-03T03:50:34.997Z,13.16
2023-08-03T03:53:03.522Z,13.16
2023-08-03T03:55:33.753Z,13.15
2023-08-03T03:58:04.095Z,13.12
2023-08-03T04:00:36.070Z,13.10
2023-08-03T04:03:04.798Z,13.06
2023-08-03T04:05:37.778Z,13.00
2023-08-03T04:08:06.757Z,12.95
2023-08-03T04:10:36.734Z,12.89
2023-08-03T04:13:06.574Z,12.84
2023-08-03T04:15:35.294Z,12.78
2023-08-03T04:18:06.765Z,12.76
2023-08-03T04:20:37.454Z,12.72
2023-08-03T04:23:06.108Z,12.67
2023-08-03T04:25:34.976Z,12.65
2023-08-03T04:28:16.753Z,12.63
2023-08-03T04:30:47.898Z,12.63
2023-08-03T04:33:17.531Z,12.65
2023-08-03T04:35:45.973Z,12.68
2023-08-03T04:38:16.642Z,12.70
2023-08-03T04:40:47.727Z,12.68
2023-08-03T04:43:17.110Z,12.67
2023-08-03T04:45:47.589Z,12.61
2023-08-03T04:48:19.857Z,12.59
2023-08-03T04:50:50.044Z,12.56
2023-08-03T04:53:20.811Z,12.55
2023-08-03T04:55:49.514Z,12.62
2023-08-03T04:58:17.866Z,12.67
2023-08-03T05:00:49.892Z,12.70
2023-08-03T05:03:18.575Z,12.71
2023-08-03T05:05:49.142Z,12.72
2023-08-03T05:08:17.507Z,12.69
2023-08-03T05:10:48.046Z,12.68
2023-08-03T05:13:18.663Z,12.65
2023-08-03T05:15:50.775Z,12.64
2023-08-03T05:18:18.962Z,12.64
2023-08-03T05:20:48.779Z,12.65
2023-08-03T05:23:17.097Z,12.63
2023-08-03T05:25:45.349Z,12.68
2023-08-03T05:28:14.448Z,12.76
2023-08-03T05:30:42.855Z,12.87
2023-08-03T05:33:12.586Z,12.97
2023-08-03T05:35:41.227Z,13.10
2023-08-03T05:38:09.810Z,13.25
2023-08-03T05:40:42.698Z,13.39
2023-08-03T05:43:12.686Z,13.48
2023-08-03T05:45:45.039Z,13.57
2023-08-03T05:48:17.752Z,13.71
2023-08-03T05:50:49.606Z,13.79
2023-08-03T05:53:22.643Z,13.90
2023-08-03T05:56:01.597Z,13.98
2023-08-03T05:58:41.050Z,14.05
2023-08-03T06:01:13.006Z,14.08
2023-08-03T06:03:45.727Z,14.16
2023-08-03T06:06:18.131Z,14.38
2023-08-03T06:08:49.248Z,14.60
2023-08-03T06:11:26.920Z,14.71
2023-08-03T06:13:57.931Z,14.73
2023-08-03T06:16:27.726Z,14.74
2023-08-03T06:19:00.355Z,14.76
2023-08-03T06:21:30.002Z,14.76
2023-08-03T06:24:01.819Z,14.76
2023-08-03T06:26:33.783Z,14.86
2023-08-03T06:29:03.705Z,14.98
2023-08-03T06:31:37.035Z,15.14
2023-08-03T06:34:06.738Z,15.26
2023-08-03T06:36:38.253Z,15.43
2023-08-03T06:39:07.597Z,15.54
2023-08-03T06:41:38.374Z,15.61
2023-08-03T06:44:11.837Z,15.78
2023-08-03T06:46:41.367Z,16.03
2023-08-03T06:49:13.321Z,16.10
2023-08-03T06:51:42.693Z,16.06
2023-08-03T06:54:13.183Z,15.92
2023-08-03T06:56:42.942Z,16.03
2023-08-03T06:59:13.975Z,16.06
2023-08-03T07:01:43.085Z,16.17
2023-08-03T07:04:12.845Z,16.33
2023-08-03T07:18:06.230Z,16.44
2023-08-03T07:20:35.539Z,16.23
2023-08-03T07:23:03.859Z,15.96
2023-08-03T07:25:34.747Z,15.90
2023-08-03T07:28:04.449Z,15.87
2023-08-03T07:30:33.232Z,15.81
2023-08-03T07:33:01.590Z,15.78
2023-08-03T07:35:31.094Z,15.71
2023-08-03T07:37:59.356Z,15.63
2023-08-03T07:40:27.553Z,15.57
2023-08-03T07:42:55.788Z,15.41
2023-08-03T07:47:55.161Z,15.09
2023-08-03T07:50:23.784Z,15.27
2023-08-03T07:52:53.310Z,15.45
2023-08-03T07:55:21.725Z,15.46
2023-08-03T07:57:49.885Z,15.55
2023-08-03T08:00:18.245Z,15.72
2023-08-03T08:02:46.439Z,15.95
2023-08-03T08:05:14.810Z,16.18
2023-08-03T08:07:43.011Z,16.41
2023-08-03T08:10:13.096Z,16.61
2023-08-03T08:12:41.184Z,16.71
2023-08-03T08:15:09.779Z,16.59
2023-08-03T08:17:38.160Z,16.44
2023-08-03T08:20:07.432Z,16.39
2023-08-03T08:22:36.916Z,16.30
2023-08-03T08:25:05.561Z,16.27
2023-08-03T08:27:35.442Z,16.24
2023-08-03T08:30:03.560Z,16.11
2023-08-03T08:32:31.807Z,16.19
2023-08-03T08:35:00.049Z,16.35
2023-08-03T08:37:30.429Z,16.48
2023-08-03T08:39:59.798Z,16.58
2023-08-03T08:42:30.055Z,16.74
2023-08-03T08:44:59.691Z,16.81
2023-08-03T08:47:28.026Z,16.67
2023-08-03T08:52:28.724Z,16.57
2023-08-03T09:00:53.611Z,16.81
2023-08-03T09:03:21.992Z,16.61
2023-08-03T09:08:49.104Z,16.84
2023-08-03T09:11:17.371Z,17.65
2023-08-03T09:13:50.862Z,18.20
2023-08-03T09:16:28.110Z,18.75
2023-08-03T09:18:56.341Z,19.87
2023-08-03T09:29:03.089Z,20.64
2023-08-03T09:31:33.341Z,20.13
2023-08-03T09:34:02.589Z,19.63
2023-08-03T09:36:32.024Z,19.31
2023-08-03T09:44:19.517Z,17.81
2023-08-03T09:46:51.069Z,17.60
2023-08-03T09:49:19.478Z,17.44
2023-08-03T09:54:30.490Z,17.27
2023-08-03T09:59:38.342Z,17.18
2023-08-03T10:02:11.976Z,17.53
2023-08-03T10:04:44.140Z,18.05
2023-08-03T10:07:16.985Z,18.75
2023-08-03T10:09:49.063Z,19.29
2023-08-03T10:12:20.703Z,19.94
2023-08-03T10:14:52.912Z,20.15
2023-08-03T10:17:24.116Z,19.71
2023-08-03T10:19:53.973Z,19.04
2023-08-03T10:22:22.166Z,18.92
2023-08-03T10:25:17.389Z,19.35
2023-08-03T10:28:12.599Z,19.82
2023-08-03T10:31:12.435Z,19.70
2023-08-03T10:34:07.052Z,19.39
2023-08-03T10:36:51.089Z,19.07
2023-08-03T10:39:53.974Z,18.88
2023-08-03T10:42:28.049Z,19.16
2023-08-03T10:44:57.491Z,19.06
2023-08-03T10:47:29.197Z,18.89
2023-08-03T10:50:01.559Z,18.70
2023-08-03T10:52:31.878Z,18.81
2023-08-03T10:55:23.722Z,18.77
2023-08-03T10:57:52.429Z,18.92
2023-08-03T11:00:20.685Z,19.07
2023-08-03T11:02:49.257Z,19.27
2023-08-03T11:05:20.087Z,19.33
2023-08-03T11:07:49.332Z,19.24
2023-08-03T11:10:18.836Z,19.15
2023-08-03T11:12:47.728Z,18.91
2023-08-03T11:15:19.635Z,18.64
2023-08-03T11:17:50.490Z,18.45
2023-08-03T11:20:22.103Z,18.58
2023-08-03T11:22:50.382Z,18.86
2023-08-03T11:25:21.476Z,19.33
2023-08-03T11:27:49.761Z,19.75
2023-08-03T11:30:22.016Z,19.93
2023-08-03T11:32:50.478Z,20.08
2023-08-03T11:35:19.980Z,20.31
2023-08-03T11:37:48.238Z,20.30
2023-08-03T11:40:17.776Z,20.47
2023-08-03T11:42:47.501Z,20.97
2023-08-03T11:45:15.698Z,21.34
2023-08-03T11:47:45.687Z,21.33
2023-08-03T11:50:13.942Z,20.97
2023-08-03T11:52:43.713Z,20.54
2023-08-03T11:55:26.422Z,20.08
2023-08-03T11:58:12.607Z,19.64
2023-08-03T12:00:41.177Z,19.54
2023-08-03T12:03:11.951Z,19.73
2023-08-03T12:06:00.343Z,20.28
2023-08-03T12:08:44.455Z,20.88
2023-08-03T12:11:15.806Z,20.45
2023-08-03T12:16:17.796Z,19.63
2023-08-03T12:18:46.010Z,19.56
2023-08-03T12:21:14.461Z,19.36
2023-08-03T12:23:43.962Z,19.21
2023-08-03T12:26:12.276Z,19.22
2023-08-03T12:28:40.368Z,19.19
2023-08-03T12:31:08.578Z,19.32
2023-08-03T12:33:39.396Z,19.52
2023-08-03T12:36:07.574Z,19.72
2023-08-03T12:38:35.785Z,20.02
2023-08-03T12:41:06.070Z,20.34
2023-08-03T12:43:34.884Z,20.70
2023-08-03T12:46:03.253Z,20.98
2023-08-03T12:48:31.599Z,21.06
2023-08-03T12:51:00.274Z,20.71
2023-08-03T12:53:29.029Z,20.49
2023-08-03T12:55:57.280Z,20.10
2023-08-03T12:58:26.840Z,19.84
2023-08-03T13:00:57.286Z,19.57
2023-08-03T13:03:25.572Z,19.55
2023-08-03T13:05:55.579Z,19.74
2023-08-03T13:08:24.094Z,19.97
2023-08-03T13:10:52.467Z,20.46
2023-08-03T13:13:20.646Z,20.89
2023-08-03T13:15:51.006Z,21.24
2023-08-03T13:18:19.813Z,21.35
2023-08-03T13:20:49.379Z,21.16
2023-08-03T13:23:18.007Z,20.81
2023-08-03T13:25:46.298Z,20.39
2023-08-03T13:28:14.389Z,20.00
2023-08-03T13:30:42.666Z,19.67
2023-08-03T13:33:12.362Z,19.50
2023-08-03T13:35:40.558Z,19.45
2023-08-03T13:38:08.800Z,19.41
2023-08-03T13:40:37.207Z,19.50
2023-08-03T13:43:05.364Z,19.53
2023-08-03T13:45:33.514Z,19.58
2023-08-03T13:48:02.017Z,19.43
2023-08-03T13:50:31.760Z,19.37
2023-08-03T13:53:00.447Z,19.29
2023-08-03T13:55:28.598Z,19.34
2023-08-03T14:00:29.122Z,19.99
2023-08-03T14:02:58.726Z,20.35
2023-08-03T14:07:59.989Z,20.57
2023-08-03T14:10:31.214Z,20.90
2023-08-03T14:13:01.854Z,21.03
2023-08-03T14:18:47.922Z,20.89
2023-08-03T14:23:22.105Z,21.38
2023-08-03T14:25:50.730Z,21.61
2023-08-03T14:30:50.043Z,22.27
2023-08-03T14:33:18.524Z,22.87
2023-08-03T14:35:46.764Z,23.42
2023-08-03T14:38:15.396Z,23.60
2023-08-03T14:40:49.186Z,23.68
2023-08-03T14:43:17.604Z,23.73
2023-08-03T14:45:51.586Z,23.53
2023-08-03T14:48:19.914Z,22.86
2023-08-03T14:50:52.973Z,22.47
2023-08-03T14:53:22.608Z,22.29
2023-08-03T14:58:32.269Z,22.23
2023-08-03T15:01:07.617Z,22.65
2023-08-03T15:03:38.587Z,23.31
2023-08-03T15:06:14.736Z,23.47
2023-08-03T15:08:43.265Z,23.05
2023-08-03T15:11:13.305Z,22.34
2023-08-03T15:13:45.653Z,21.65
2023-08-03T15:16:28.879Z,21.13
2023-08-03T15:18:58.681Z,20.75
2023-08-03T15:21:28.969Z,20.58
2023-08-03T15:24:00.037Z,20.69
2023-08-03T15:26:33.908Z,20.80
2023-08-03T15:29:05.016Z,20.82
2023-08-03T15:31:42.821Z,21.02
2023-08-03T15:34:12.224Z,21.71
2023-08-03T15:36:45.077Z,22.08
2023-08-03T15:39:18.657Z,22.21
2023-08-03T15:41:53.422Z,22.12
2023-08-03T15:44:32.547Z,21.71
2023-08-03T15:47:29.283Z,21.34
2023-08-03T15:49:52.809Z,21.15
2023-08-03T15:52:32.988Z,21.05
2023-08-03T15:57:42.577Z,20.76
2023-08-03T16:00:12.002Z,20.61
2023-08-03T16:02:40.788Z,20.31
2023-08-03T16:05:09.927Z,20.08
2023-08-03T16:07:38.173Z,19.72
2023-08-03T16:10:07.036Z,19.60
2023-08-03T16:12:35.252Z,19.56
2023-08-03T16:15:05.235Z,19.14
2023-08-03T16:17:33.456Z,18.90
2023-08-03T16:20:01.791Z,18.79
2023-08-03T16:22:30.164Z,18.93
2023-08-03T16:24:58.339Z,19.04
2023-08-03T16:27:26.480Z,19.23
2023-08-03T16:32:32.199Z,19.76
2023-08-03T16:35:04.087Z,19.89
2023-08-03T16:37:33.832Z,19.83
2023-08-03T16:40:02.127Z,19.47
2023-08-03T16:42:30.885Z,18.77
2023-08-03T16:44:59.826Z,18.10
2023-08-03T16:47:28.018Z,17.87
2023-08-03T16:49:57.637Z,17.90
2023-08-03T16:52:25.917Z,18.11
2023-08-03T16:54:54.173Z,18.25
2023-08-03T16:57:22.652Z,18.24
2023-08-03T16:59:51.114Z,18.22
2023-08-03T17:02:19.226Z,18.27
2023-08-03T17:04:47.558Z,18.34
2023-08-03T17:07:17.181Z,18.77
2023-08-03T17:09:45.467Z,19.22
2023-08-03T17:12:13.574Z,19.37
2023-08-03T17:14:41.659Z,19.34
2023-08-03T17:17:09.828Z,19.12
2023-08-03T17:19:38.008Z,18.90
2023-08-03T17:22:06.476Z,18.69
2023-08-03T17:24:36.209Z,18.45
2023-08-03T17:27:04.815Z,18.37
2023-08-03T17:29:32.992Z,18.46
2023-08-03T17:32:01.287Z,18.46
2023-08-03T17:34:29.588Z,18.65
2023-08-03T17:36:58.012Z,18.69
2023-08-03T17:39:26.535Z,18.78
2023-08-03T17:41:56.730Z,18.71
2023-08-03T17:44:24.700Z,18.59
2023-08-03T17:46:53.960Z,18.48
2023-08-03T17:49:22.199Z,18.40
2023-08-03T17:51:50.410Z,18.33
2023-08-03T17:54:19.528Z,18.25
2023-08-03T17:56:48.024Z,18.26
2023-08-03T17:59:17.860Z,18.21
2023-08-03T18:01:46.233Z,17.94
2023-08-03T18:04:14.326Z,17.85
2023-08-03T18:06:42.916Z,17.82
2023-08-03T18:09:12.165Z,17.86
2023-08-03T18:11:40.395Z,17.82
2023-08-03T18:14:08.805Z,17.77
2023-08-03T18:16:38.534Z,17.68
2023-08-03T18:19:06.879Z,17.64
2023-08-03T18:21:35.179Z,17.68
2023-08-03T18:24:03.341Z,17.90
2023-08-03T18:26:31.861Z,17.94
2023-08-03T18:29:00.191Z,17.95
2023-08-03T18:31:28.484Z,17.78
2023-08-03T18:33:58.356Z,17.63
2023-08-03T18:36:26.869Z,17.42
2023-08-03T18:38:55.683Z,17.15
2023-08-03T18:41:25.451Z,17.02
2023-08-03T18:43:54.138Z,16.93
2023-08-03T18:46:23.892Z,16.99
2023-08-03T18:48:52.015Z,17.13
2023-08-03T18:51:23.511Z,17.23
2023-08-03T18:53:53.551Z,17.26
2023-08-03T18:56:23.616Z,17.22
2023-08-03T18:58:52.413Z,17.19
2023-08-03T19:01:20.774Z,17.20
2023-08-03T19:03:53.146Z,17.21
2023-08-03T19:06:23.322Z,17.26
2023-08-03T19:08:51.695Z,17.19
2023-08-03T19:11:19.839Z,17.11
2023-08-03T19:13:48.306Z,16.91
2023-08-03T19:16:16.707Z,16.75
2023-08-03T19:18:45.037Z,16.57
2023-08-03T19:21:13.598Z,16.44
2023-08-03T19:23:43.524Z,16.30
2023-08-03T19:26:14.060Z,16.21
2023-08-03T19:28:42.330Z,16.11
2023-08-03T19:31:10.494Z,16.03
2023-08-03T19:33:38.930Z,16.01
2023-08-03T19:36:07.207Z,15.96
2023-08-03T19:38:35.504Z,15.86
2023-08-03T19:41:06.576Z,15.79
2023-08-03T19:43:34.815Z,15.69
2023-08-03T19:46:09.566Z,15.59
2023-08-03T19:48:37.941Z,15.48
2023-08-03T20:06:31.829Z,15.01
2023-08-03T20:09:00.296Z,14.99
2023-08-03T20:11:30.108Z,14.94
2023-08-03T20:13:58.335Z,14.93
2023-08-03T20:21:29.217Z,14.80
2023-08-03T20:23:57.962Z,14.78
2023-08-03T20:26:35.200Z,14.81
2023-08-03T20:29:06.334Z,14.82
2023-08-03T20:31:35.197Z,14.85
2023-08-03T20:36:35.016Z,14.91
2023-08-03T20:49:09.895Z,14.81
2023-08-03T20:51:38.197Z,14.77
2023-08-03T20:54:38.569Z,14.75
2023-08-03T20:56:54.525Z,14.74
2023-08-03T20:59:24.151Z,14.73
2023-08-03T21:01:53.921Z,14.76
2023-08-03T21:04:26.739Z,14.75
2023-08-03T21:06:57.713Z,14.75
2023-08-03T21:09:25.920Z,14.72
2023-08-03T21:11:54.175Z,14.73
2023-08-03T21:14:23.832Z,14.66
2023-08-03T21:16:52.123Z,14.58
2023-08-03T21:19:20.295Z,14.46
2023-08-03T21:21:49.574Z,14.44
2023-08-03T21:24:17.895Z,14.43
2023-08-03T21:26:46.732Z,14.42
2023-08-03T21:29:15.110Z,14.41
2023-08-03T21:34:17.704Z,14.42
2023-08-03T21:36:46.149Z,14.44
2023-08-03T21:39:14.782Z,14.44
2023-08-03T21:41:42.927Z,14.40
2023-08-03T21:44:11.120Z,14.36
2023-08-03T21:46:39.443Z,14.34
2023-08-03T21:49:09.143Z,14.32
2023-08-03T21:51:37.322Z,14.28
2023-08-03T21:54:05.712Z,14.23
2023-08-03T21:56:33.919Z,14.23
2023-08-03T21:59:02.322Z,14.21
2023-08-03T22:01:30.545Z,14.19
2023-08-03T22:03:58.872Z,14.14
2023-08-03T22:06:29.814Z,14.14
2023-08-03T22:08:58.003Z,14.14
2023-08-03T22:11:26.225Z,14.10
2023-08-03T22:14:03.911Z,14.07
2023-08-03T22:16:32.688Z,14.05
2023-08-03T22:19:00.887Z,13.99
2023-08-03T22:21:38.836Z,13.88
2023-08-03T22:24:07.639Z,13.86
2023-08-03T22:26:36.609Z,13.85
2023-08-03T22:29:08.239Z,13.90
2023-08-03T22:31:36.545Z,13.94
2023-08-03T22:34:04.656Z,13.98
2023-08-03T22:36:34.243Z,13.94
2023-08-03T22:39:02.665Z,13.93
2023-08-03T22:41:34.187Z,13.93
2023-08-03T22:44:02.395Z,13.88
2023-08-03T22:46:30.692Z,13.81
2023-08-03T22:48:58.946Z,13.78
2023-08-03T22:51:26.994Z,13.73
2023-08-03T22:53:56.561Z,13.75
2023-08-03T22:56:24.709Z,13.71
2023-08-03T22:58:52.880Z,13.66
2023-08-03T23:01:22.535Z,13.66
2023-08-03T23:03:51.151Z,13.68
2023-08-03T23:06:21.453Z,13.69
2023-08-03T23:08:49.870Z,13.69
2023-08-03T23:11:19.500Z,13.70
2023-08-03T23:13:47.725Z,13.68
2023-08-03T23:16:19.476Z,13.66
2023-08-03T23:18:47.875Z,13.65
2023-08-03T23:21:16.182Z,13.50
2023-08-03T23:23:44.374Z,13.36
2023-08-03T23:26:13.635Z,13.25
2023-08-03T23:28:43.888Z,13.16
2023-08-03T23:31:12.196Z,13.08
2023-08-03T23:33:40.890Z,13.03
2023-08-03T23:36:09.462Z,12.95
2023-08-03T23:38:37.626Z,12.89
2023-08-03T23:41:06.033Z,12.83
2023-08-03T23:43:34.498Z,12.79
2023-08-03T23:46:04.293Z,12.76
2023-08-03T23:48:32.484Z,12.76
2023-08-03T23:51:00.623Z,12.82
2023-08-03T23:53:28.691Z,12.92
2023-08-03T23:55:56.900Z,12.98
2023-08-03T23:58:25.196Z,13.03
